Meath Environmental Platform

Observations for Trim Patrick St

Time AQI Temp °C Hum % Pres Pa CO μg/m³ H₂S μg/m³ NO μg/m³ NO₂ μg/m³ O₃ μg/m³ SO₂ μg/m³ PM1 μg/m³ PM2.5 μg/m³ PM10 μg/m³
Thursday 6 August 2026
02:58 2 13.3 74 38,460 0.3 0.18 3.43 11.3 34.82 0 6.29 10.56 11.62
02:57 2 13.3 75 38,460 0.31 0.23 3.48 11.01 34.22 0 5.43 9.83 10.81
02:56 2 13.3 74 38,460 0.3 0.25 3.46 12.09 36.86 0 6.29 10.56 11.62
02:55 2 13.3 75 38,460 0.29 0.02 3.4 10.81 34.8 0 5.43 8.42 9.26
02:54 2 13.3 74 38,460 0.29 0.33 3.47 11.22 33.26 0 5.43 9.16 10.08
02:53 2 13.3 74 38,460 0.3 1.11 3.46 12.88 47.35 0 4.57 10.59 11.64
02:52 2 13.3 74 38,460 0.29 0.41 3.45 10.79 34.41 0 4.57 9.14 10.05
02:51 2 13.3 75 38,460 0.29 0.44 3.43 12.44 42.58 0 4.57 9.12 10.03
02:50 2 13.3 74 38,460 0.29 0 3.51 11.5 36.42 0 2.86 7.73 8.5
02:49 2 13.3 74 38,460 0.29 0.05 3.43 11.74 34.98 0 3.71 8.43 9.27
02:48 2 13.3 75 38,460 0.29 0 3.47 11.64 37.94 0 4.57 7.71 8.48
02:47 2 13.3 74 38,460 0.28 0.1 3.45 11.49 35.76 0 4.57 8.45 9.29
02:46 2 13.3 73 38,460 0.27 0.18 3.5 10.69 33.38 0 5.43 9.94 10.94
02:45 2 13.3 75 38,460 0.29 0.95 3.47 12.12 42.81 0 3.71 7.7 8.47
02:44 2 13.3 74 38,460 0.28 1.01 3.55 13.03 49.18 0 2.86 7.04 7.75
02:43 2 13.3 74 38,460 0.3 0.33 3.51 12.41 41.37 0 4.57 8.49 9.33
02:42 2 13.3 74 38,460 0.28 0.02 3.47 10.57 34.93 0 2 7.02 7.72
02:41 2 13.3 74 38,460 0.28 0 3.39 11.11 29.38 0 3.71 7 7.7
02:40 2 13.3 74 38,460 0.29 0.95 3.48 11.61 39.1 0 3.71 7.77 8.55
02:39 2 13.3 74 38,460 0.28 0.41 3.37 12.65 43.16 0 5.43 9.88 10.87